This is the latest recevied weather packets stored in our database for station/object EA2DXT-10. If no packets are shown the sender has not sent any weather packets the latest 10 day(s).
| Time | Temp. | Humidity | Pressure | Rain* | Wind** | Luminosity | Snow |
|---|---|---|---|---|---|---|---|
| 1777390435 | 28.33° C | 70% | 943.3 hPa | - | - | - | - |
| 1777389534 | 28.89° C | 70% | 943.2 hPa | - | - | - | - |
| 1777379633 | 22.78° C | 69% | 632.5 hPa | - | - | - | - |
| 1777378732 | 22.78° C | 69% | 632.5 hPa | - | - | - | - |
| 1777372292 | 30° C | 70% | 946.3 hPa | - | - | - | - |
| 1777372264 | 30° C | 70% | 946.4 hPa | - | - | - | - |
| 1777371723 | 30° C | 70% | 946.5 hPa | - | - | - | - |
| 1777369018 | 29.44° C | 70% | 946.9 hPa | - | - | - | - |
| 1777368987 | 28.89° C | 70% | 946.8 hPa | - | - | - | - |
| 1777368959 | 28.89° C | 70% | 946.8 hPa | - | - | - | - |
| 1777368933 | 28.89° C | 70% | 946.8 hPa | - | - | - | - |
| 1777367678 | 23.33° C | 60% | 947.6 hPa | - | - | - | - |
| 1777364951 | 19.44° C | 69% | 947.9 hPa | - | - | - | - |
| 1777364050 | 18.89° C | 69% | 947.9 hPa | - | - | - | - |
| 1777363150 | 17.78° C | 69% | 947.8 hPa | - | - | - | - |
| 1777362249 | 16.67° C | 69% | 947.8 hPa | - | - | - | - |
| 1777361349 | 16.11° C | 69% | 948 hPa | - | - | - | - |
| 1777361317 | 16.11° C | 69% | 948 hPa | - | - | - | - |
| 1777360417 | 16.11° C | 69% | 948 hPa | - | - | - | - |
| 1777360390 | 16.11° C | 69% | 948 hPa | - | - | - | - |
| 1777359490 | 15.56° C | 69% | 948.1 hPa | - | - | - | - |
| 1777357664 | 15.56° C | 61% | 947.8 hPa | - | - | - | - |
| 1777356763 | 15° C | 61% | 947.7 hPa | - | - | - | - |
| 1777355863 | 14.44° C | 61% | 947.7 hPa | - | - | - | - |
| 1777354062 | 14.44° C | 61% | 947.8 hPa | - | - | - | - |
* Rain since midnight (hover to see other rain measurements)
** Current wind speed in m/s (hover to see current wind gust speed)